sensor_id;sensor_type;location;lat;lon;timestamp;P1;durP1;ratioP1;P2;durP2;ratioP2
34673;SDS011;20879;55.668;37.858;2023-03-04T00:00:21;4.93;;;2.65;;
34673;SDS011;20879;55.668;37.858;2023-03-04T00:02:51;5.32;;;2.55;;
34673;SDS011;20879;55.668;37.858;2023-03-04T00:05:20;7.10;;;2.80;;
34673;SDS011;20879;55.668;37.858;2023-03-04T00:07:49;6.93;;;3.35;;
34673;SDS011;20879;55.668;37.858;2023-03-04T00:10:22;6.43;;;2.83;;
34673;SDS011;20879;55.668;37.858;2023-03-04T00:13:01;5.45;;;2.83;;
34673;SDS011;20879;55.668;37.858;2023-03-04T00:15:30;7.53;;;3.03;;
34673;SDS011;20879;55.668;37.858;2023-03-04T00:18:00;5.82;;;3.03;;
34673;SDS011;20879;55.668;37.858;2023-03-04T00:20:34;7.38;;;3.00;;
34673;SDS011;20879;55.668;37.858;2023-03-04T00:23:03;5.93;;;3.05;;
34673;SDS011;20879;55.668;37.858;2023-03-04T00:25:35;7.05;;;3.58;;
34673;SDS011;20879;55.668;37.858;2023-03-04T00:28:04;7.45;;;2.88;;
34673;SDS011;20879;55.668;37.858;2023-03-04T00:30:33;6.35;;;3.15;;
34673;SDS011;20879;55.668;37.858;2023-03-04T00:33:02;6.53;;;2.97;;
34673;SDS011;20879;55.668;37.858;2023-03-04T00:35:31;7.65;;;3.05;;
34673;SDS011;20879;55.668;37.858;2023-03-04T00:38:01;7.13;;;3.22;;
34673;SDS011;20879;55.668;37.858;2023-03-04T00:40:30;6.03;;;2.88;;
34673;SDS011;20879;55.668;37.858;2023-03-04T00:43:02;7.05;;;3.10;;
34673;SDS011;20879;55.668;37.858;2023-03-04T00:45:37;6.55;;;3.50;;
34673;SDS011;20879;55.668;37.858;2023-03-04T00:48:06;7.63;;;3.50;;
34673;SDS011;20879;55.668;37.858;2023-03-04T00:50:36;7.65;;;3.10;;
34673;SDS011;20879;55.668;37.858;2023-03-04T00:53:06;6.38;;;3.38;;
34673;SDS011;20879;55.668;37.858;2023-03-04T00:55:40;7.95;;;3.30;;
34673;SDS011;20879;55.668;37.858;2023-03-04T00:58:13;5.15;;;3.10;;
34673;SDS011;20879;55.668;37.858;2023-03-04T01:00:42;5.72;;;3.05;;
34673;SDS011;20879;55.668;37.858;2023-03-04T01:03:12;5.07;;;3.13;;
34673;SDS011;20879;55.668;37.858;2023-03-04T01:05:41;5.80;;;2.90;;
34673;SDS011;20879;55.668;37.858;2023-03-04T01:08:10;6.68;;;3.10;;
34673;SDS011;20879;55.668;37.858;2023-03-04T01:10:40;5.00;;;3.28;;
34673;SDS011;20879;55.668;37.858;2023-03-04T01:13:09;7.68;;;3.40;;
34673;SDS011;20879;55.668;37.858;2023-03-04T01:15:40;5.65;;;3.67;;
34673;SDS011;20879;55.668;37.858;2023-03-04T01:18:10;7.93;;;4.25;;
34673;SDS011;20879;55.668;37.858;2023-03-04T01:20:40;11.32;;;4.68;;
34673;SDS011;20879;55.668;37.858;2023-03-04T01:23:09;8.82;;;4.65;;
34673;SDS011;20879;55.668;37.858;2023-03-04T01:25:40;8.52;;;4.55;;
34673;SDS011;20879;55.668;37.858;2023-03-04T01:28:14;8.32;;;4.28;;
34673;SDS011;20879;55.668;37.858;2023-03-04T01:30:46;7.53;;;4.22;;
34673;SDS011;20879;55.668;37.858;2023-03-04T01:33:15;6.32;;;4.45;;
34673;SDS011;20879;55.668;37.858;2023-03-04T01:35:45;8.00;;;3.78;;
34673;SDS011;20879;55.668;37.858;2023-03-04T01:38:14;6.55;;;4.00;;
34673;SDS011;20879;55.668;37.858;2023-03-04T01:41:02;8.85;;;3.75;;
34673;SDS011;20879;55.668;37.858;2023-03-04T01:43:32;7.97;;;4.32;;
34673;SDS011;20879;55.668;37.858;2023-03-04T01:46:06;7.75;;;4.03;;
34673;SDS011;20879;55.668;37.858;2023-03-04T01:48:36;6.97;;;4.25;;
34673;SDS011;20879;55.668;37.858;2023-03-04T01:51:10;4.53;;;2.73;;
34673;SDS011;20879;55.668;37.858;2023-03-04T01:53:42;10.23;;;4.50;;
34673;SDS011;20879;55.668;37.858;2023-03-04T01:56:14;7.03;;;4.60;;
34673;SDS011;20879;55.668;37.858;2023-03-04T02:01:40;9.75;;;5.63;;
34673;SDS011;20879;55.668;37.858;2023-03-04T02:04:11;7.70;;;4.72;;
34673;SDS011;20879;55.668;37.858;2023-03-04T02:06:46;11.90;;;5.70;;
34673;SDS011;20879;55.668;37.858;2023-03-04T02:09:23;10.73;;;6.00;;
34673;SDS011;20879;55.668;37.858;2023-03-04T02:11:53;10.00;;;5.72;;
34673;SDS011;20879;55.668;37.858;2023-03-04T02:14:23;8.60;;;5.38;;
34673;SDS011;20879;55.668;37.858;2023-03-04T02:16:54;12.93;;;5.90;;
34673;SDS011;20879;55.668;37.858;2023-03-04T02:19:32;12.20;;;5.50;;
34673;SDS011;20879;55.668;37.858;2023-03-04T02:22:14;11.65;;;6.22;;
34673;SDS011;20879;55.668;37.858;2023-03-04T02:24:44;11.52;;;5.55;;
34673;SDS011;20879;55.668;37.858;2023-03-04T02:27:21;9.95;;;6.38;;
34673;SDS011;20879;55.668;37.858;2023-03-04T02:29:51;11.50;;;5.90;;
34673;SDS011;20879;55.668;37.858;2023-03-04T02:32:26;13.73;;;6.57;;
34673;SDS011;20879;55.668;37.858;2023-03-04T02:34:55;10.82;;;5.63;;
34673;SDS011;20879;55.668;37.858;2023-03-04T02:37:30;11.50;;;6.35;;
34673;SDS011;20879;55.668;37.858;2023-03-04T02:40:00;9.75;;;5.35;;
34673;SDS011;20879;55.668;37.858;2023-03-04T02:42:32;9.23;;;5.15;;
34673;SDS011;20879;55.668;37.858;2023-03-04T02:45:01;12.30;;;5.40;;
34673;SDS011;20879;55.668;37.858;2023-03-04T02:47:30;12.23;;;5.88;;
34673;SDS011;20879;55.668;37.858;2023-03-04T02:50:00;13.13;;;6.65;;
34673;SDS011;20879;55.668;37.858;2023-03-04T02:52:29;14.85;;;7.05;;
34673;SDS011;20879;55.668;37.858;2023-03-04T02:54:58;12.43;;;6.80;;
34673;SDS011;20879;55.668;37.858;2023-03-04T02:57:36;13.13;;;7.43;;
34673;SDS011;20879;55.668;37.858;2023-03-04T03:00:06;12.00;;;7.35;;
34673;SDS011;20879;55.668;37.858;2023-03-04T03:02:39;12.88;;;7.78;;
34673;SDS011;20879;55.668;37.858;2023-03-04T03:05:13;12.77;;;8.02;;
34673;SDS011;20879;55.668;37.858;2023-03-04T03:07:47;14.07;;;8.52;;
34673;SDS011;20879;55.668;37.858;2023-03-04T03:10:23;14.43;;;8.48;;
34673;SDS011;20879;55.668;37.858;2023-03-04T03:12:56;15.05;;;8.75;;
34673;SDS011;20879;55.668;37.858;2023-03-04T03:15:31;17.00;;;9.77;;
34673;SDS011;20879;55.668;37.858;2023-03-04T03:18:06;17.27;;;11.05;;
34673;SDS011;20879;55.668;37.858;2023-03-04T03:20:35;18.45;;;11.68;;
34673;SDS011;20879;55.668;37.858;2023-03-04T03:23:04;15.25;;;10.02;;
34673;SDS011;20879;55.668;37.858;2023-03-04T03:25:39;16.08;;;10.43;;
34673;SDS011;20879;55.668;37.858;2023-03-04T03:28:10;13.75;;;8.27;;
34673;SDS011;20879;55.668;37.858;2023-03-04T03:30:40;13.75;;;8.40;;
34673;SDS011;20879;55.668;37.858;2023-03-04T03:33:09;13.68;;;7.78;;
34673;SDS011;20879;55.668;37.858;2023-03-04T03:35:44;12.35;;;7.38;;
34673;SDS011;20879;55.668;37.858;2023-03-04T03:38:13;11.73;;;7.15;;
34673;SDS011;20879;55.668;37.858;2023-03-04T03:40:43;13.45;;;7.85;;
34673;SDS011;20879;55.668;37.858;2023-03-04T03:43:14;13.07;;;7.40;;
34673;SDS011;20879;55.668;37.858;2023-03-04T03:45:43;11.88;;;7.45;;
34673;SDS011;20879;55.668;37.858;2023-03-04T03:48:13;12.52;;;7.10;;
34673;SDS011;20879;55.668;37.858;2023-03-04T03:50:42;13.07;;;7.35;;
34673;SDS011;20879;55.668;37.858;2023-03-04T03:53:16;16.23;;;8.30;;
34673;SDS011;20879;55.668;37.858;2023-03-04T03:58:28;12.63;;;7.63;;
34673;SDS011;20879;55.668;37.858;2023-03-04T04:00:57;12.00;;;7.75;;
34673;SDS011;20879;55.668;37.858;2023-03-04T04:03:32;14.45;;;8.00;;
34673;SDS011;20879;55.668;37.858;2023-03-04T04:06:01;15.50;;;8.13;;
34673;SDS011;20879;55.668;37.858;2023-03-04T04:08:30;15.70;;;7.93;;
34673;SDS011;20879;55.668;37.858;2023-03-04T04:11:05;13.32;;;8.27;;
34673;SDS011;20879;55.668;37.858;2023-03-04T04:13:38;14.20;;;7.43;;
34673;SDS011;20879;55.668;37.858;2023-03-04T04:16:08;13.90;;;7.18;;
34673;SDS011;20879;55.668;37.858;2023-03-04T04:18:38;10.25;;;6.30;;
34673;SDS011;20879;55.668;37.858;2023-03-04T04:21:07;10.50;;;6.78;;
34673;SDS011;20879;55.668;37.858;2023-03-04T04:23:37;11.18;;;6.88;;
34673;SDS011;20879;55.668;37.858;2023-03-04T04:26:13;14.05;;;7.50;;
34673;SDS011;20879;55.668;37.858;2023-03-04T04:28:44;15.07;;;7.57;;
34673;SDS011;20879;55.668;37.858;2023-03-04T04:31:13;14.27;;;7.53;;
34673;SDS011;20879;55.668;37.858;2023-03-04T04:33:42;12.95;;;7.32;;
34673;SDS011;20879;55.668;37.858;2023-03-04T04:36:12;13.75;;;8.45;;
34673;SDS011;20879;55.668;37.858;2023-03-04T04:38:42;14.00;;;8.57;;
34673;SDS011;20879;55.668;37.858;2023-03-04T04:43:48;13.70;;;7.45;;
34673;SDS011;20879;55.668;37.858;2023-03-04T04:46:17;13.68;;;7.93;;
34673;SDS011;20879;55.668;37.858;2023-03-04T04:48:47;16.38;;;8.15;;
34673;SDS011;20879;55.668;37.858;2023-03-04T04:51:16;12.07;;;7.55;;
34673;SDS011;20879;55.668;37.858;2023-03-04T04:53:46;14.73;;;7.85;;
34673;SDS011;20879;55.668;37.858;2023-03-04T04:56:17;12.43;;;7.55;;
34673;SDS011;20879;55.668;37.858;2023-03-04T04:58:50;12.30;;;7.82;;
34673;SDS011;20879;55.668;37.858;2023-03-04T05:03:48;10.32;;;7.10;;
34673;SDS011;20879;55.668;37.858;2023-03-04T05:06:18;11.38;;;7.07;;
34673;SDS011;20879;55.668;37.858;2023-03-04T05:08:48;11.93;;;6.65;;
34673;SDS011;20879;55.668;37.858;2023-03-04T05:11:22;7.97;;;5.07;;
34673;SDS011;20879;55.668;37.858;2023-03-04T05:13:53;8.75;;;5.20;;
34673;SDS011;20879;55.668;37.858;2023-03-04T05:16:23;8.35;;;5.25;;
34673;SDS011;20879;55.668;37.858;2023-03-04T05:18:52;6.97;;;4.20;;
34673;SDS011;20879;55.668;37.858;2023-03-04T05:21:21;7.75;;;4.63;;
34673;SDS011;20879;55.668;37.858;2023-03-04T05:23:56;8.95;;;4.97;;
34673;SDS011;20879;55.668;37.858;2023-03-04T05:26:30;4.88;;;3.47;;
34673;SDS011;20879;55.668;37.858;2023-03-04T05:29:01;7.13;;;3.90;;
34673;SDS011;20879;55.668;37.858;2023-03-04T05:31:37;5.03;;;3.33;;
34673;SDS011;20879;55.668;37.858;2023-03-04T05:34:06;7.07;;;4.18;;
34673;SDS011;20879;55.668;37.858;2023-03-04T05:36:35;7.40;;;4.55;;
34673;SDS011;20879;55.668;37.858;2023-03-04T05:39:05;6.78;;;3.78;;
34673;SDS011;20879;55.668;37.858;2023-03-04T05:41:39;12.60;;;4.93;;
34673;SDS011;20879;55.668;37.858;2023-03-04T05:44:10;7.25;;;3.85;;
34673;SDS011;20879;55.668;37.858;2023-03-04T05:46:45;7.78;;;4.43;;
34673;SDS011;20879;55.668;37.858;2023-03-04T05:49:14;5.82;;;4.13;;
34673;SDS011;20879;55.668;37.858;2023-03-04T05:51:44;6.63;;;4.30;;
34673;SDS011;20879;55.668;37.858;2023-03-04T05:54:13;7.15;;;4.90;;
34673;SDS011;20879;55.668;37.858;2023-03-04T05:56:42;10.30;;;4.63;;
34673;SDS011;20879;55.668;37.858;2023-03-04T05:59:13;7.05;;;4.38;;
34673;SDS011;20879;55.668;37.858;2023-03-04T06:01:51;6.60;;;4.38;;
34673;SDS011;20879;55.668;37.858;2023-03-04T06:04:23;6.68;;;5.18;;
34673;SDS011;20879;55.668;37.858;2023-03-04T06:06:55;9.43;;;5.47;;
34673;SDS011;20879;55.668;37.858;2023-03-04T06:09:30;7.63;;;4.90;;
34673;SDS011;20879;55.668;37.858;2023-03-04T06:12:10;5.82;;;4.25;;
34673;SDS011;20879;55.668;37.858;2023-03-04T06:14:42;6.80;;;4.22;;
34673;SDS011;20879;55.668;37.858;2023-03-04T06:17:11;6.75;;;4.30;;
34673;SDS011;20879;55.668;37.858;2023-03-04T06:19:40;9.48;;;4.65;;
34673;SDS011;20879;55.668;37.858;2023-03-04T06:22:09;9.10;;;4.60;;
34673;SDS011;20879;55.668;37.858;2023-03-04T06:24:39;9.00;;;4.05;;
34673;SDS011;20879;55.668;37.858;2023-03-04T06:27:13;7.78;;;4.72;;
34673;SDS011;20879;55.668;37.858;2023-03-04T06:29:45;14.68;;;6.80;;
34673;SDS011;20879;55.668;37.858;2023-03-04T06:32:19;11.23;;;5.68;;
34673;SDS011;20879;55.668;37.858;2023-03-04T06:34:48;9.80;;;4.47;;
34673;SDS011;20879;55.668;37.858;2023-03-04T06:37:18;16.10;;;7.68;;
34673;SDS011;20879;55.668;37.858;2023-03-04T06:39:47;7.65;;;4.22;;
34673;SDS011;20879;55.668;37.858;2023-03-04T06:42:16;10.55;;;5.72;;
34673;SDS011;20879;55.668;37.858;2023-03-04T06:44:49;6.32;;;3.85;;
34673;SDS011;20879;55.668;37.858;2023-03-04T06:47:18;6.25;;;3.55;;
34673;SDS011;20879;55.668;37.858;2023-03-04T06:49:51;5.22;;;3.45;;
34673;SDS011;20879;55.668;37.858;2023-03-04T06:52:20;7.60;;;3.60;;
34673;SDS011;20879;55.668;37.858;2023-03-04T06:54:56;7.75;;;4.07;;
34673;SDS011;20879;55.668;37.858;2023-03-04T06:57:28;9.13;;;5.05;;
34673;SDS011;20879;55.668;37.858;2023-03-04T07:00:00;8.10;;;4.40;;
34673;SDS011;20879;55.668;37.858;2023-03-04T07:02:31;8.80;;;3.97;;
34673;SDS011;20879;55.668;37.858;2023-03-04T07:05:00;6.22;;;3.78;;
34673;SDS011;20879;55.668;37.858;2023-03-04T07:07:30;6.70;;;3.80;;
34673;SDS011;20879;55.668;37.858;2023-03-04T07:09:59;6.40;;;3.53;;
34673;SDS011;20879;55.668;37.858;2023-03-04T07:12:28;9.07;;;3.70;;
34673;SDS011;20879;55.668;37.858;2023-03-04T07:15:00;4.95;;;3.50;;
34673;SDS011;20879;55.668;37.858;2023-03-04T07:17:30;5.25;;;2.75;;
34673;SDS011;20879;55.668;37.858;2023-03-04T07:20:05;4.25;;;3.15;;
34673;SDS011;20879;55.668;37.858;2023-03-04T07:22:35;6.75;;;3.00;;
34673;SDS011;20879;55.668;37.858;2023-03-04T07:25:04;4.80;;;3.30;;
34673;SDS011;20879;55.668;37.858;2023-03-04T07:27:39;8.15;;;4.00;;
34673;SDS011;20879;55.668;37.858;2023-03-04T07:30:11;5.70;;;3.67;;
34673;SDS011;20879;55.668;37.858;2023-03-04T07:32:40;9.52;;;4.10;;
34673;SDS011;20879;55.668;37.858;2023-03-04T07:35:10;7.75;;;3.90;;
34673;SDS011;20879;55.668;37.858;2023-03-04T07:37:39;7.55;;;3.92;;
34673;SDS011;20879;55.668;37.858;2023-03-04T07:40:09;7.80;;;4.03;;
34673;SDS011;20879;55.668;37.858;2023-03-04T07:42:39;5.53;;;3.87;;
34673;SDS011;20879;55.668;37.858;2023-03-04T07:45:15;7.28;;;4.22;;
34673;SDS011;20879;55.668;37.858;2023-03-04T07:47:45;7.32;;;4.28;;
34673;SDS011;20879;55.668;37.858;2023-03-04T07:50:20;6.68;;;4.35;;
34673;SDS011;20879;55.668;37.858;2023-03-04T07:52:49;7.63;;;4.80;;
34673;SDS011;20879;55.668;37.858;2023-03-04T07:55:23;6.03;;;4.38;;
34673;SDS011;20879;55.668;37.858;2023-03-04T07:58:03;12.25;;;5.05;;
34673;SDS011;20879;55.668;37.858;2023-03-04T08:00:34;8.10;;;4.82;;
34673;SDS011;20879;55.668;37.858;2023-03-04T08:03:03;9.48;;;4.97;;
34673;SDS011;20879;55.668;37.858;2023-03-04T08:05:32;12.15;;;5.25;;
34673;SDS011;20879;55.668;37.858;2023-03-04T08:08:02;9.18;;;4.72;;
34673;SDS011;20879;55.668;37.858;2023-03-04T08:10:36;8.40;;;5.18;;
34673;SDS011;20879;55.668;37.858;2023-03-04T08:13:06;8.38;;;5.43;;
34673;SDS011;20879;55.668;37.858;2023-03-04T08:15:40;7.93;;;4.68;;
34673;SDS011;20879;55.668;37.858;2023-03-04T08:18:11;6.93;;;4.75;;
34673;SDS011;20879;55.668;37.858;2023-03-04T08:20:40;7.03;;;4.20;;
34673;SDS011;20879;55.668;37.858;2023-03-04T08:23:10;6.22;;;4.65;;
34673;SDS011;20879;55.668;37.858;2023-03-04T08:25:39;10.20;;;4.15;;
34673;SDS011;20879;55.668;37.858;2023-03-04T08:28:16;7.05;;;4.50;;
34673;SDS011;20879;55.668;37.858;2023-03-04T08:30:53;7.13;;;4.53;;
34673;SDS011;20879;55.668;37.858;2023-03-04T08:33:22;9.35;;;4.10;;
34673;SDS011;20879;55.668;37.858;2023-03-04T08:35:52;8.13;;;3.78;;
34673;SDS011;20879;55.668;37.858;2023-03-04T08:38:21;7.07;;;3.72;;
34673;SDS011;20879;55.668;37.858;2023-03-04T08:40:51;7.53;;;4.00;;
34673;SDS011;20879;55.668;37.858;2023-03-04T08:43:21;6.97;;;3.83;;
34673;SDS011;20879;55.668;37.858;2023-03-04T08:45:53;5.32;;;3.40;;
34673;SDS011;20879;55.668;37.858;2023-03-04T08:50:52;5.13;;;2.97;;
34673;SDS011;20879;55.668;37.858;2023-03-04T08:53:21;6.93;;;3.55;;
34673;SDS011;20879;55.668;37.858;2023-03-04T08:55:51;5.95;;;3.28;;
34673;SDS011;20879;55.668;37.858;2023-03-04T08:58:25;7.05;;;3.30;;
34673;SDS011;20879;55.668;37.858;2023-03-04T09:00:57;6.05;;;3.17;;
34673;SDS011;20879;55.668;37.858;2023-03-04T09:03:27;5.32;;;2.83;;
34673;SDS011;20879;55.668;37.858;2023-03-04T09:05:56;3.50;;;2.65;;
34673;SDS011;20879;55.668;37.858;2023-03-04T09:08:25;7.25;;;3.08;;
34673;SDS011;20879;55.668;37.858;2023-03-04T09:10:55;5.43;;;2.97;;
34673;SDS011;20879;55.668;37.858;2023-03-04T09:13:24;4.10;;;2.80;;
34673;SDS011;20879;55.668;37.858;2023-03-04T09:16:04;4.45;;;2.83;;
34673;SDS011;20879;55.668;37.858;2023-03-04T09:18:37;5.60;;;2.80;;
34673;SDS011;20879;55.668;37.858;2023-03-04T09:21:07;3.70;;;2.65;;
34673;SDS011;20879;55.668;37.858;2023-03-04T09:23:36;4.22;;;2.65;;
34673;SDS011;20879;55.668;37.858;2023-03-04T09:26:18;4.70;;;3.20;;
34673;SDS011;20879;55.668;37.858;2023-03-04T09:28:50;4.55;;;2.70;;
34673;SDS011;20879;55.668;37.858;2023-03-04T09:31:21;4.05;;;2.92;;
34673;SDS011;20879;55.668;37.858;2023-03-04T09:33:56;5.80;;;3.10;;
34673;SDS011;20879;55.668;37.858;2023-03-04T09:36:26;4.15;;;3.00;;
34673;SDS011;20879;55.668;37.858;2023-03-04T09:38:57;4.38;;;2.75;;
34673;SDS011;20879;55.668;37.858;2023-03-04T09:41:29;5.20;;;2.80;;
34673;SDS011;20879;55.668;37.858;2023-03-04T09:44:06;4.28;;;2.67;;
34673;SDS011;20879;55.668;37.858;2023-03-04T09:46:45;4.07;;;2.30;;
34673;SDS011;20879;55.668;37.858;2023-03-04T09:49:16;4.50;;;2.33;;
34673;SDS011;20879;55.668;37.858;2023-03-04T09:51:51;3.38;;;2.47;;
34673;SDS011;20879;55.668;37.858;2023-03-04T09:54:31;3.83;;;2.40;;
34673;SDS011;20879;55.668;37.858;2023-03-04T09:57:17;2.95;;;2.10;;
34673;SDS011;20879;55.668;37.858;2023-03-04T09:59:56;2.30;;;2.10;;
34673;SDS011;20879;55.668;37.858;2023-03-04T10:02:43;3.00;;;2.03;;
34673;SDS011;20879;55.668;37.858;2023-03-04T10:05:18;3.78;;;2.00;;
34673;SDS011;20879;55.668;37.858;2023-03-04T10:07:52;3.17;;;2.00;;
34673;SDS011;20879;55.668;37.858;2023-03-04T10:10:26;4.47;;;2.20;;
34673;SDS011;20879;55.668;37.858;2023-03-04T10:13:01;2.60;;;2.10;;
34673;SDS011;20879;55.668;37.858;2023-03-04T10:15:34;3.60;;;2.20;;
34673;SDS011;20879;55.668;37.858;2023-03-04T10:18:10;3.63;;;2.15;;
34673;SDS011;20879;55.668;37.858;2023-03-04T10:20:49;2.97;;;2.22;;
34673;SDS011;20879;55.668;37.858;2023-03-04T10:23:29;3.67;;;2.33;;
34673;SDS011;20879;55.668;37.858;2023-03-04T10:25:59;3.08;;;2.15;;
34673;SDS011;20879;55.668;37.858;2023-03-04T10:28:43;4.32;;;2.30;;
34673;SDS011;20879;55.668;37.858;2023-03-04T10:31:14;4.45;;;2.35;;
34673;SDS011;20879;55.668;37.858;2023-03-04T10:33:56;4.72;;;2.20;;
34673;SDS011;20879;55.668;37.858;2023-03-04T10:36:31;3.85;;;2.30;;
34673;SDS011;20879;55.668;37.858;2023-03-04T10:39:07;6.03;;;2.10;;
34673;SDS011;20879;55.668;37.858;2023-03-04T10:41:41;2.08;;;1.70;;
34673;SDS011;20879;55.668;37.858;2023-03-04T10:44:14;2.17;;;1.70;;
34673;SDS011;20879;55.668;37.858;2023-03-04T10:46:51;4.45;;;2.28;;
34673;SDS011;20879;55.668;37.858;2023-03-04T10:49:25;2.53;;;1.70;;
34673;SDS011;20879;55.668;37.858;2023-03-04T10:52:00;2.08;;;1.38;;
34673;SDS011;20879;55.668;37.858;2023-03-04T10:54:30;2.92;;;1.65;;
34673;SDS011;20879;55.668;37.858;2023-03-04T10:57:05;2.83;;;1.70;;
34673;SDS011;20879;55.668;37.858;2023-03-04T10:59:48;2.42;;;1.63;;
34673;SDS011;20879;55.668;37.858;2023-03-04T11:02:31;4.53;;;1.92;;
34673;SDS011;20879;55.668;37.858;2023-03-04T11:05:14;5.57;;;2.55;;
34673;SDS011;20879;55.668;37.858;2023-03-04T11:07:47;3.20;;;1.85;;
34673;SDS011;20879;55.668;37.858;2023-03-04T11:10:24;3.58;;;1.90;;
34673;SDS011;20879;55.668;37.858;2023-03-04T11:13:02;2.63;;;1.60;;
34673;SDS011;20879;55.668;37.858;2023-03-04T11:15:48;5.55;;;2.08;;
34673;SDS011;20879;55.668;37.858;2023-03-04T11:18:23;3.05;;;2.10;;
34673;SDS011;20879;55.668;37.858;2023-03-04T11:21:04;3.67;;;2.00;;
34673;SDS011;20879;55.668;37.858;2023-03-04T11:23:38;3.60;;;2.10;;
34673;SDS011;20879;55.668;37.858;2023-03-04T11:26:25;3.00;;;2.10;;
34673;SDS011;20879;55.668;37.858;2023-03-04T11:29:01;2.80;;;1.90;;
34673;SDS011;20879;55.668;37.858;2023-03-04T11:34:14;4.57;;;2.10;;
34673;SDS011;20879;55.668;37.858;2023-03-04T11:36:57;5.80;;;2.30;;
34673;SDS011;20879;55.668;37.858;2023-03-04T11:39:31;4.80;;;2.17;;
34673;SDS011;20879;55.668;37.858;2023-03-04T11:42:05;6.30;;;2.00;;
34673;SDS011;20879;55.668;37.858;2023-03-04T11:44:41;5.65;;;2.40;;
34673;SDS011;20879;55.668;37.858;2023-03-04T11:47:14;3.20;;;2.15;;
34673;SDS011;20879;55.668;37.858;2023-03-04T11:50:02;3.72;;;2.25;;
34673;SDS011;20879;55.668;37.858;2023-03-04T11:52:57;3.85;;;1.70;;
34673;SDS011;20879;55.668;37.858;2023-03-04T11:55:43;5.45;;;2.30;;
34673;SDS011;20879;55.668;37.858;2023-03-04T11:58:22;6.00;;;2.03;;
34673;SDS011;20879;55.668;37.858;2023-03-04T12:01:07;3.38;;;2.28;;
34673;SDS011;20879;55.668;37.858;2023-03-04T12:06:38;3.78;;;2.40;;
34673;SDS011;20879;55.668;37.858;2023-03-04T12:09:27;3.50;;;2.10;;
34673;SDS011;20879;55.668;37.858;2023-03-04T12:12:10;5.82;;;2.53;;
34673;SDS011;20879;55.668;37.858;2023-03-04T12:14:55;5.70;;;2.35;;
34673;SDS011;20879;55.668;37.858;2023-03-04T12:17:35;3.28;;;2.13;;
34673;SDS011;20879;55.668;37.858;2023-03-04T12:23:26;5.32;;;2.97;;
34673;SDS011;20879;55.668;37.858;2023-03-04T12:26:12;6.05;;;2.72;;
34673;SDS011;20879;55.668;37.858;2023-03-04T12:29:01;3.60;;;2.75;;
34673;SDS011;20879;55.668;37.858;2023-03-04T12:31:46;6.93;;;3.05;;
34673;SDS011;20879;55.668;37.858;2023-03-04T12:34:28;3.97;;;2.60;;
34673;SDS011;20879;55.668;37.858;2023-03-04T12:37:04;3.80;;;2.75;;
34673;SDS011;20879;55.668;37.858;2023-03-04T12:40:13;5.93;;;2.72;;
34673;SDS011;20879;55.668;37.858;2023-03-04T12:42:57;3.33;;;2.45;;
34673;SDS011;20879;55.668;37.858;2023-03-04T12:53:03;6.05;;;2.33;;
34673;SDS011;20879;55.668;37.858;2023-03-04T12:55:41;3.08;;;2.30;;
34673;SDS011;20879;55.668;37.858;2023-03-04T12:58:17;4.25;;;2.70;;
34673;SDS011;20879;55.668;37.858;2023-03-04T13:01:05;4.97;;;2.95;;
34673;SDS011;20879;55.668;37.858;2023-03-04T13:03:42;5.95;;;2.83;;
34673;SDS011;20879;55.668;37.858;2023-03-04T13:06:28;5.25;;;2.95;;
34673;SDS011;20879;55.668;37.858;2023-03-04T13:09:16;6.60;;;2.30;;
34673;SDS011;20879;55.668;37.858;2023-03-04T13:11:53;6.88;;;2.58;;
34673;SDS011;20879;55.668;37.858;2023-03-04T13:14:31;4.20;;;2.72;;
34673;SDS011;20879;55.668;37.858;2023-03-04T13:20:20;4.18;;;2.22;;
34673;SDS011;20879;55.668;37.858;2023-03-04T13:25:37;3.50;;;2.28;;
34673;SDS011;20879;55.668;37.858;2023-03-04T13:28:26;4.53;;;2.60;;
34673;SDS011;20879;55.668;37.858;2023-03-04T13:31:10;3.08;;;2.20;;
34673;SDS011;20879;55.668;37.858;2023-03-04T13:33:53;2.72;;;2.42;;
34673;SDS011;20879;55.668;37.858;2023-03-04T13:39:26;3.25;;;2.50;;
34673;SDS011;20879;55.668;37.858;2023-03-04T13:42:02;3.58;;;2.60;;
34673;SDS011;20879;55.668;37.858;2023-03-04T13:44:58;4.35;;;2.67;;
34673;SDS011;20879;55.668;37.858;2023-03-04T13:47:42;5.15;;;3.20;;
34673;SDS011;20879;55.668;37.858;2023-03-04T13:50:27;5.80;;;2.63;;
34673;SDS011;20879;55.668;37.858;2023-03-04T13:56:23;7.38;;;2.97;;
34673;SDS011;20879;55.668;37.858;2023-03-04T14:02:11;7.78;;;3.67;;
34673;SDS011;20879;55.668;37.858;2023-03-04T14:04:44;4.85;;;2.95;;
34673;SDS011;20879;55.668;37.858;2023-03-04T14:07:19;5.20;;;2.23;;
34673;SDS011;20879;55.668;37.858;2023-03-04T14:09:53;3.55;;;2.63;;
34673;SDS011;20879;55.668;37.858;2023-03-04T14:12:23;4.25;;;3.00;;
34673;SDS011;20879;55.668;37.858;2023-03-04T14:14:55;3.83;;;3.03;;
34673;SDS011;20879;55.668;37.858;2023-03-04T14:17:31;3.58;;;2.83;;
34673;SDS011;20879;55.668;37.858;2023-03-04T14:20:20;4.05;;;2.97;;
34673;SDS011;20879;55.668;37.858;2023-03-04T14:22:53;3.67;;;2.75;;
34673;SDS011;20879;55.668;37.858;2023-03-04T14:25:23;3.63;;;2.72;;
34673;SDS011;20879;55.668;37.858;2023-03-04T14:28:04;5.15;;;3.13;;
34673;SDS011;20879;55.668;37.858;2023-03-04T14:30:38;4.15;;;3.20;;
34673;SDS011;20879;55.668;37.858;2023-03-04T14:33:16;4.55;;;2.88;;
34673;SDS011;20879;55.668;37.858;2023-03-04T14:35:49;6.68;;;3.70;;
34673;SDS011;20879;55.668;37.858;2023-03-04T14:38:27;5.68;;;3.55;;
34673;SDS011;20879;55.668;37.858;2023-03-04T14:41:04;6.03;;;3.28;;
34673;SDS011;20879;55.668;37.858;2023-03-04T14:43:36;6.88;;;3.90;;
34673;SDS011;20879;55.668;37.858;2023-03-04T14:46:10;7.43;;;4.20;;
34673;SDS011;20879;55.668;37.858;2023-03-04T14:48:46;5.22;;;3.83;;
34673;SDS011;20879;55.668;37.858;2023-03-04T14:51:28;5.50;;;3.60;;
34673;SDS011;20879;55.668;37.858;2023-03-04T14:53:58;5.72;;;3.92;;
34673;SDS011;20879;55.668;37.858;2023-03-04T14:56:28;7.22;;;4.40;;
34673;SDS011;20879;55.668;37.858;2023-03-04T14:58:58;7.38;;;4.75;;
34673;SDS011;20879;55.668;37.858;2023-03-04T15:01:28;7.13;;;3.97;;
34673;SDS011;20879;55.668;37.858;2023-03-04T15:04:02;10.32;;;4.45;;
34673;SDS011;20879;55.668;37.858;2023-03-04T15:06:34;8.85;;;4.45;;
34673;SDS011;20879;55.668;37.858;2023-03-04T15:09:07;6.03;;;4.20;;
34673;SDS011;20879;55.668;37.858;2023-03-04T15:11:47;7.53;;;4.57;;
34673;SDS011;20879;55.668;37.858;2023-03-04T15:17:22;6.22;;;4.25;;
34673;SDS011;20879;55.668;37.858;2023-03-04T15:19:59;6.88;;;3.97;;
34673;SDS011;20879;55.668;37.858;2023-03-04T15:23:02;7.85;;;4.50;;
34673;SDS011;20879;55.668;37.858;2023-03-04T15:25:33;7.43;;;4.90;;
34673;SDS011;20879;55.668;37.858;2023-03-04T15:28:04;6.45;;;4.28;;
34673;SDS011;20879;55.668;37.858;2023-03-04T15:30:40;8.82;;;4.90;;
34673;SDS011;20879;55.668;37.858;2023-03-04T15:35:51;6.00;;;4.63;;
34673;SDS011;20879;55.668;37.858;2023-03-04T15:38:23;6.30;;;4.95;;
34673;SDS011;20879;55.668;37.858;2023-03-04T15:40:59;7.10;;;4.75;;
34673;SDS011;20879;55.668;37.858;2023-03-04T15:43:28;7.38;;;5.20;;
34673;SDS011;20879;55.668;37.858;2023-03-04T15:46:04;6.72;;;5.18;;
34673;SDS011;20879;55.668;37.858;2023-03-04T15:48:33;8.10;;;5.65;;
34673;SDS011;20879;55.668;37.858;2023-03-04T15:51:06;8.73;;;5.70;;
34673;SDS011;20879;55.668;37.858;2023-03-04T15:53:42;8.75;;;5.72;;
34673;SDS011;20879;55.668;37.858;2023-03-04T15:56:13;7.53;;;5.70;;
34673;SDS011;20879;55.668;37.858;2023-03-04T15:58:51;9.68;;;6.90;;